Airfield :
LOGIN :

Register | Disclaimer

   EN    FR    IT 

 










Legend :    VFR   Marginal VFR   IFR   Intensive IFR   Very Intensive IFR
Visi :
Ceiling :
>= 8 km
>= 3000ft
5 to 8 km
1000 to 3000 ft
1500m to 5 km
500 to 1000 ft
800 to 1500m
200 to 500 ft
< 800m
< 200 ft
Symbols :   Thunderstorms  Fog  Heavy snow  Heavy precipitations  Wind > 20 kt
SIGMETs :     Misc.  Thunderstorms  Icing  Turbulence  Mountain Waves  Volcanic Ashes






- Airport Elevation : 392 ft
- IATA code : CDG


LFPG - Paris-Aeroport Charles De Gaulle

CURRENT METAR :
  • 170400Z 24014KT 9999 BKN017 BKN020 11/08 Q1004 NOSIG

EXPIRED METARs :
  • 170330Z 24014KT 9999 FEW015 BKN020 BKN046 11/08 Q1004 NOSIG
  • 170300Z 23015KT 9999 SCT015 BKN020 BKN050 11/08 Q1004 NOSIG
  • 170230Z 23016KT 9999 SCT015 SCT026 BKN060 11/08 Q1004 NOSIG
  • 170200Z 23014KT 9999 SCT015 BKN020 BKN038 11/08 Q1004 NOSIG
  • 170130Z 23014KT 9999 BKN014 SCT021 BKN046 11/08 Q1004 NOSIG

TAF TAF LFPG
Valid from the 17 at 00:00 until the 18 at 06:00 UTC


162300Z 1700/1806 22012KT 9999 FEW015 SCT040 TX15/1715Z TN09/1704Z
BECMG 1709/1711 26015G25KT SCT020TCU FEW025CB
TEMPO 1711/1716 3000 SHRA BKN018TCU SCT023CB
PROB40
TEMPO 1712/1716 2000 TSRA BKN018CB
BECMG 1718/1720 26008KT
ATIS : +33 1 48 62 10 92



MET'MAP, your aeronautical weather chart ! - Copyright ORBIFLY December 2007 - Disclaimer

ORBIFLY MET'MAP TEAM :

Programming & Development : Alexandra Zaïnal
Concept & original design : Baudouin d'Aumeries
Assistance for programming : Marc-Olivier Méhu
Technical & hardware support : Manuel Goepfert

Contact : metmap@orbifly.com




SOURCES & CREDITS :

   NOAA